createdAt,value
2023-01-12T00:02:22.447Z,15.13
2023-01-12T00:04:50.766Z,22.83
2023-01-12T00:07:20.369Z,28.10
2023-01-12T00:09:50.114Z,24.87
2023-01-12T00:12:18.221Z,21.53
2023-01-12T00:14:46.346Z,11.50
2023-01-12T00:17:17.284Z,21.47
2023-01-12T00:19:45.370Z,26.43
2023-01-12T00:22:17.931Z,26.93
2023-01-12T00:24:49.643Z,18.97
2023-01-12T00:27:21.109Z,14.40
2023-01-12T00:29:49.494Z,17.83
2023-01-12T00:32:19.266Z,20.43
2023-01-12T00:34:47.742Z,13.93
2023-01-12T00:37:16.047Z,16.73
2023-01-12T00:40:00.900Z,12.00
2023-01-12T00:42:49.158Z,20.13
2023-01-12T00:45:23.251Z,24.60
2023-01-12T00:47:51.458Z,9.00
2023-01-12T00:50:19.896Z,17.47
2023-01-12T00:52:48.188Z,18.43
2023-01-12T00:55:16.507Z,11.83
2023-01-12T00:57:46.007Z,12.30
2023-01-12T01:00:15.168Z,19.60
2023-01-12T01:02:43.284Z,27.27
2023-01-12T01:05:11.559Z,14.20
2023-01-12T01:07:39.809Z,7.40
2023-01-12T01:10:09.030Z,18.03
2023-01-12T01:12:38.440Z,19.97
2023-01-12T01:15:09.200Z,23.97
2023-01-12T01:17:37.338Z,13.27
2023-01-12T01:20:06.262Z,19.67
2023-01-12T01:22:34.428Z,22.30
2023-01-12T01:25:02.517Z,19.57
2023-01-12T01:27:30.658Z,18.83
2023-01-12T01:29:58.805Z,18.10
2023-01-12T01:32:28.312Z,18.47
2023-01-12T01:34:56.559Z,21.40
2023-01-12T01:37:24.685Z,18.70
2023-01-12T01:39:52.756Z,17.90
2023-01-12T01:42:29.562Z,17.63
2023-01-12T01:45:00.157Z,16.67
2023-01-12T01:47:36.135Z,9.43
2023-01-12T01:50:07.814Z,17.23
2023-01-12T01:52:39.511Z,16.53
2023-01-12T01:55:12.805Z,17.03
2023-01-12T01:57:46.011Z,16.67
2023-01-12T02:00:15.185Z,13.07
2023-01-12T02:02:46.652Z,14.73
2023-01-12T02:05:18.827Z,21.17
2023-01-12T02:07:47.262Z,21.80
2023-01-12T02:10:16.139Z,13.13
2023-01-12T02:13:02.182Z,16.63
2023-01-12T02:15:54.069Z,20.63
2023-01-12T02:18:29.804Z,25.90
2023-01-12T02:21:07.801Z,22.00
2023-01-12T02:24:28.942Z,24.63
2023-01-12T02:27:33.089Z,14.40
2023-01-12T02:30:35.020Z,33.10
2023-01-12T02:33:19.496Z,16.37
2023-01-12T02:35:58.918Z,36.30
2023-01-12T02:38:36.300Z,11.43
2023-01-12T02:41:12.755Z,20.80
2023-01-12T02:43:42.294Z,13.87
2023-01-12T02:46:14.650Z,17.77
2023-01-12T02:48:50.125Z,12.70
2023-01-12T02:51:24.740Z,19.33
2023-01-12T02:53:55.776Z,17.33
2023-01-12T02:56:31.735Z,24.37
2023-01-12T02:59:04.565Z,11.53
2023-01-12T03:01:34.209Z,29.97
2023-01-12T03:04:07.368Z,20.60
2023-01-12T03:06:41.685Z,24.33
2023-01-12T03:09:10.223Z,17.77
2023-01-12T03:11:41.968Z,18.77
2023-01-12T03:14:12.198Z,18.70
2023-01-12T03:16:43.355Z,7.03
2023-01-12T03:19:17.191Z,12.67
2023-01-12T03:21:51.957Z,15.63
2023-01-12T03:24:24.637Z,8.77
2023-01-12T03:26:57.426Z,11.60
2023-01-12T03:29:31.179Z,14.50
2023-01-12T03:31:59.853Z,17.27
2023-01-12T03:34:29.959Z,20.47
2023-01-12T03:37:04.554Z,20.33
2023-01-12T03:39:43.603Z,24.77
2023-01-12T03:42:18.071Z,20.30
2023-01-12T03:44:57.068Z,22.00
2023-01-12T03:47:29.852Z,24.90
2023-01-12T03:50:02.821Z,29.07
2023-01-12T03:52:32.630Z,26.17
2023-01-12T03:55:03.017Z,17.20
2023-01-12T03:57:31.773Z,23.47
2023-01-12T04:00:03.141Z,24.67
2023-01-12T04:02:31.352Z,36.53
2023-01-12T04:05:00.888Z,41.43
2023-01-12T04:07:30.168Z,42.57
2023-01-12T04:09:58.463Z,37.33
2023-01-12T04:12:26.577Z,24.23
2023-01-12T04:14:54.778Z,27.53
2023-01-12T04:17:25.394Z,29.43
2023-01-12T04:19:53.725Z,24.30
2023-01-12T04:22:49.234Z,17.37
2023-01-12T04:25:19.613Z,18.27
2023-01-12T04:27:49.505Z,17.93
2023-01-12T04:30:20.332Z,21.23
2023-01-12T04:32:48.456Z,26.07
2023-01-12T04:35:17.693Z,17.90
2023-01-12T04:37:47.698Z,23.67
2023-01-12T04:40:18.146Z,15.40
2023-01-12T04:43:07.363Z,20.97
2023-01-12T04:45:37.170Z,20.80
2023-01-12T04:48:07.517Z,19.50
2023-01-12T04:50:36.279Z,19.37
2023-01-12T04:53:07.240Z,22.20
2023-01-12T04:55:38.004Z,20.40
2023-01-12T04:58:06.323Z,21.70
2023-01-12T05:00:34.752Z,27.40
2023-01-12T05:03:03.612Z,24.50
2023-01-12T05:05:34.167Z,17.10
2023-01-12T05:08:20.779Z,19.30
2023-01-12T05:10:52.472Z,18.07
2023-01-12T05:13:20.756Z,19.83
2023-01-12T05:15:48.967Z,16.57
2023-01-12T05:18:17.207Z,13.90
2023-01-12T05:20:45.876Z,17.87
2023-01-12T05:23:14.033Z,15.30
2023-01-12T05:25:42.234Z,24.90
2023-01-12T05:28:11.893Z,18.03
2023-01-12T05:30:40.082Z,17.23
2023-01-12T05:33:08.370Z,17.67
2023-01-12T05:35:39.337Z,17.93
2023-01-12T05:38:08.119Z,14.40
2023-01-12T05:40:36.335Z,15.33
2023-01-12T05:43:21.807Z,15.30
2023-01-12T05:45:51.366Z,12.80
2023-01-12T05:48:19.429Z,13.03
2023-01-12T05:50:47.597Z,8.10
2023-01-12T05:53:15.822Z,13.07
2023-01-12T05:55:43.920Z,14.47
2023-01-12T05:58:12.063Z,9.60
2023-01-12T06:00:40.259Z,10.00
2023-01-12T06:03:09.728Z,14.00
2023-01-12T06:05:37.838Z,7.43
2023-01-12T06:08:06.327Z,20.60
2023-01-12T06:10:37.045Z,10.60
2023-01-12T06:13:22.586Z,11.53
2023-01-12T06:15:50.903Z,7.87
2023-01-12T06:18:22.734Z,27.73
2023-01-12T06:20:50.815Z,16.33
2023-01-12T06:23:19.023Z,17.97
2023-01-12T06:25:47.197Z,36.87
2023-01-12T06:28:16.456Z,17.30
2023-01-12T06:30:44.617Z,12.97
2023-01-12T06:33:13.470Z,11.23
2023-01-12T06:35:49.737Z,14.30
2023-01-12T06:38:19.062Z,14.83
2023-01-12T06:40:47.657Z,13.87
2023-01-12T06:43:14.749Z,17.50
2023-01-12T06:45:42.989Z,27.30
2023-01-12T06:48:11.455Z,11.87
2023-01-12T06:50:39.682Z,23.10
2023-01-12T06:53:09.515Z,11.40
2023-01-12T06:55:37.623Z,23.20
2023-01-12T06:58:05.860Z,9.23
2023-01-12T07:00:34.118Z,7.77
2023-01-12T07:03:02.240Z,16.30
2023-01-12T07:05:30.387Z,7.20
2023-01-12T07:08:00.512Z,16.43
2023-01-12T07:10:32.634Z,13.00
2023-01-12T07:13:01.567Z,13.83
2023-01-12T07:15:30.083Z,16.93
2023-01-12T07:17:58.532Z,7.43
2023-01-12T07:20:28.736Z,3.93
2023-01-12T07:22:57.394Z,5.77
2023-01-12T07:25:25.944Z,6.00
2023-01-12T07:27:57.428Z,13.03
2023-01-12T07:30:27.007Z,6.07
2023-01-12T07:32:55.412Z,5.80
2023-01-12T07:35:25.279Z,6.73
2023-01-12T07:37:55.013Z,6.90
2023-01-12T07:40:23.200Z,4.43
2023-01-12T07:43:01.037Z,5.97
2023-01-12T07:45:30.073Z,5.13
2023-01-12T07:47:58.941Z,4.93
2023-01-12T07:50:29.663Z,4.83
2023-01-12T07:53:02.445Z,5.83
2023-01-12T07:55:31.106Z,3.77
2023-01-12T07:58:03.136Z,3.70
2023-01-12T08:00:32.396Z,3.20
2023-01-12T08:03:05.665Z,3.40
2023-01-12T08:05:34.287Z,4.63
2023-01-12T08:08:03.704Z,6.93
2023-01-12T08:10:32.012Z,5.83
2023-01-12T08:13:01.736Z,4.63
2023-01-12T08:15:36.868Z,2.30
2023-01-12T08:18:09.143Z,2.83
2023-01-12T08:20:39.562Z,2.87
2023-01-12T08:23:12.951Z,2.47
2023-01-12T08:25:46.859Z,2.30
2023-01-12T08:28:21.006Z,4.97
2023-01-12T08:30:50.332Z,3.40
2023-01-12T08:33:18.708Z,3.30
2023-01-12T08:35:48.248Z,4.80
2023-01-12T08:38:16.729Z,6.60
2023-01-12T08:41:10.668Z,4.90
2023-01-12T08:43:57.620Z,3.33
2023-01-12T08:46:25.830Z,4.37
2023-01-12T08:48:54.299Z,4.40
2023-01-12T08:51:22.550Z,4.47
2023-01-12T08:53:50.871Z,4.10
2023-01-12T08:56:19.055Z,7.03
2023-01-12T08:58:48.676Z,4.63
2023-01-12T09:01:17.486Z,5.33
2023-01-12T09:03:45.838Z,7.80
2023-01-12T09:06:16.262Z,6.37
2023-01-12T09:08:45.447Z,5.37
2023-01-12T09:11:15.719Z,5.80
2023-01-12T09:13:43.958Z,5.50
2023-01-12T09:16:17.016Z,5.13
2023-01-12T09:18:45.725Z,4.60
2023-01-12T09:21:16.329Z,7.13
2023-01-12T09:23:46.119Z,7.83
2023-01-12T09:26:16.881Z,9.07
2023-01-12T09:28:46.005Z,5.53
2023-01-12T09:31:18.980Z,10.13
2023-01-12T09:33:51.471Z,6.23
2023-01-12T09:36:21.422Z,5.13
2023-01-12T09:38:50.214Z,4.63
2023-01-12T09:41:40.685Z,5.47
2023-01-12T09:44:36.533Z,8.00
2023-01-12T09:47:10.704Z,5.87
2023-01-12T09:49:45.117Z,7.40
2023-01-12T09:52:18.534Z,5.03
2023-01-12T09:54:49.789Z,6.03
2023-01-12T09:57:46.760Z,6.23
2023-01-12T10:00:17.195Z,6.90
2023-01-12T10:02:50.290Z,6.83
2023-01-12T10:05:38.941Z,7.03
2023-01-12T10:08:15.951Z,4.43
2023-01-12T10:10:57.310Z,5.33
2023-01-12T10:13:32.064Z,5.10
2023-01-12T10:16:06.328Z,7.90
2023-01-12T10:18:44.850Z,5.00
2023-01-12T10:21:15.811Z,5.20
2023-01-12T10:23:44.390Z,6.80
2023-01-12T10:26:22.251Z,7.60
2023-01-12T10:28:53.616Z,4.63
2023-01-12T10:31:28.187Z,7.73
2023-01-12T10:34:08.433Z,7.10
2023-01-12T10:36:38.342Z,5.33
2023-01-12T10:39:07.658Z,14.53
2023-01-12T10:41:39.027Z,5.27
2023-01-12T10:44:15.059Z,6.47
2023-01-12T10:46:43.780Z,5.47
2023-01-12T10:49:21.574Z,7.00
2023-01-12T10:51:56.402Z,5.60
2023-01-12T10:54:27.108Z,5.50
2023-01-12T10:57:00.017Z,6.60
2023-01-12T10:59:31.661Z,5.73
2023-01-12T11:02:16.686Z,4.60
2023-01-12T11:04:49.741Z,4.23
2023-01-12T11:07:22.016Z,4.03
2023-01-12T11:09:50.390Z,3.50
2023-01-12T11:12:24.488Z,4.13
2023-01-12T11:15:01.451Z,4.27
2023-01-12T11:17:48.858Z,4.93
2023-01-12T11:20:24.864Z,5.23
2023-01-12T11:22:56.228Z,6.90
2023-01-12T11:25:26.011Z,3.70
2023-01-12T11:27:58.285Z,7.60
2023-01-12T11:30:32.383Z,4.97
2023-01-12T11:33:08.985Z,3.17
2023-01-12T11:35:42.848Z,5.40
2023-01-12T11:38:14.865Z,4.23
2023-01-12T11:40:45.335Z,3.83
2023-01-12T11:43:45.242Z,3.63
2023-01-12T11:46:21.641Z,2.93
2023-01-12T11:48:57.205Z,3.87
2023-01-12T11:51:27.139Z,4.27
2023-01-12T11:53:55.484Z,3.93
2023-01-12T11:57:09.855Z,2.57
2023-01-12T11:59:46.130Z,4.23
2023-01-12T12:02:28.881Z,2.43
2023-01-12T12:05:06.792Z,3.33
2023-01-12T12:07:55.422Z,2.80
2023-01-12T12:10:26.219Z,3.57
2023-01-12T12:13:18.272Z,2.73
2023-01-12T12:15:56.162Z,3.03
2023-01-12T12:18:39.692Z,5.90
2023-01-12T12:21:20.430Z,4.20
2023-01-12T12:24:01.668Z,3.60
2023-01-12T12:26:34.416Z,3.40
2023-01-12T12:29:18.969Z,3.77
2023-01-12T12:32:13.197Z,2.83
2023-01-12T12:35:01.102Z,4.27
2023-01-12T12:37:38.758Z,2.90
2023-01-12T12:40:20.292Z,2.30
2023-01-12T12:43:19.358Z,2.87
2023-01-12T12:45:57.309Z,3.20
2023-01-12T12:48:35.169Z,7.73
2023-01-12T12:51:07.076Z,2.03
2023-01-12T12:53:37.271Z,3.80
2023-01-12T12:56:09.148Z,6.30
2023-01-12T12:58:42.905Z,2.90
2023-01-12T13:01:57.474Z,8.60
2023-01-12T13:05:00.326Z,3.10
2023-01-12T13:07:29.654Z,3.10
2023-01-12T13:10:29.737Z,3.23
2023-01-12T13:13:02.884Z,2.93
2023-01-12T13:15:37.212Z,2.77
2023-01-12T13:18:07.209Z,2.10
2023-01-12T13:20:55.775Z,2.70
2023-01-12T13:23:54.376Z,3.57
2023-01-12T13:26:41.776Z,3.30
2023-01-12T13:29:44.443Z,7.83
2023-01-12T13:32:35.449Z,2.77
2023-01-12T13:35:03.634Z,2.73
2023-01-12T13:37:49.856Z,3.87
2023-01-12T13:40:21.631Z,3.07
2023-01-12T13:43:08.892Z,1.77
2023-01-12T13:45:38.809Z,2.10
2023-01-12T13:48:08.363Z,1.73
2023-01-12T13:50:37.595Z,1.97
2023-01-12T13:53:06.245Z,2.30
2023-01-12T13:55:37.201Z,2.23
2023-01-12T13:58:08.281Z,3.43
2023-01-12T14:00:36.536Z,2.90
2023-01-12T14:03:06.409Z,3.53
2023-01-12T14:05:45.248Z,1.97
2023-01-12T14:08:51.358Z,2.20
2023-01-12T14:11:44.314Z,2.10
2023-01-12T14:14:45.129Z,4.07
2023-01-12T14:17:38.985Z,5.33
2023-01-12T14:20:16.393Z,1.83
2023-01-12T14:22:46.053Z,3.00
2023-01-12T14:25:17.005Z,2.60
2023-01-12T14:27:55.389Z,2.83
2023-01-12T14:30:27.049Z,5.90
2023-01-12T14:32:56.012Z,3.60
2023-01-12T14:35:26.871Z,2.70
2023-01-12T14:37:59.119Z,2.47
2023-01-12T14:40:35.135Z,2.63
2023-01-12T14:43:21.337Z,4.77
2023-01-12T14:46:22.988Z,3.60
2023-01-12T14:48:59.861Z,1.33
2023-01-12T14:51:36.115Z,1.73
2023-01-12T14:54:18.831Z,2.23
2023-01-12T14:56:52.267Z,3.93
2023-01-12T14:59:33.597Z,4.50
2023-01-12T15:02:32.692Z,4.73
2023-01-12T15:05:04.470Z,3.43
2023-01-12T15:07:37.225Z,2.73
2023-01-12T15:10:27.415Z,2.00
2023-01-12T15:12:58.078Z,2.37
2023-01-12T15:15:27.701Z,2.70
2023-01-12T15:18:23.216Z,2.30
2023-01-12T15:21:08.555Z,4.37
2023-01-12T15:23:55.959Z,7.90
2023-01-12T15:26:24.031Z,5.43
2023-01-12T15:28:52.301Z,2.27
2023-01-12T15:31:33.772Z,2.37
2023-01-12T15:34:02.970Z,1.53
2023-01-12T15:36:31.112Z,1.97
2023-01-12T15:39:00.648Z,2.70
2023-01-12T15:41:53.157Z,3.37
2023-01-12T15:44:22.822Z,2.40
2023-01-12T15:46:51.278Z,3.40
2023-01-12T15:49:19.361Z,2.60
2023-01-12T15:51:50.293Z,1.80
2023-01-12T15:54:21.437Z,5.90
2023-01-12T15:56:49.685Z,2.87
2023-01-12T15:59:18.025Z,2.93
2023-01-12T16:01:49.180Z,6.83
2023-01-12T16:07:07.316Z,4.10
2023-01-12T16:09:37.089Z,2.27
2023-01-12T16:12:05.892Z,2.97
2023-01-12T16:14:33.969Z,2.23
2023-01-12T16:17:02.096Z,2.70
2023-01-12T16:19:30.266Z,2.60
2023-01-12T16:21:58.498Z,1.70
2023-01-12T16:24:27.013Z,2.17
2023-01-12T16:26:56.581Z,2.00
2023-01-12T16:29:24.836Z,2.80
2023-01-12T16:31:53.008Z,2.77
2023-01-12T16:34:23.670Z,2.50
2023-01-12T16:36:51.847Z,3.20
2023-01-12T16:39:20.227Z,3.97
2023-01-12T16:41:49.018Z,3.37
2023-01-12T16:44:19.067Z,2.50
2023-01-12T16:46:48.785Z,3.20
2023-01-12T16:49:16.861Z,3.73
2023-01-12T16:51:46.294Z,3.73
2023-01-12T16:54:14.479Z,2.47
2023-01-12T16:56:43.783Z,3.40
2023-01-12T16:59:11.903Z,2.60
2023-01-12T17:01:41.881Z,3.03
2023-01-12T17:04:10.803Z,2.13
2023-01-12T17:06:41.022Z,2.30
2023-01-12T17:09:09.347Z,2.60
2023-01-12T17:11:39.693Z,2.57
2023-01-12T17:27:32.348Z,3.00
2023-01-12T17:30:00.690Z,4.47
2023-01-12T17:32:29.076Z,4.73
2023-01-12T17:34:57.500Z,3.00
2023-01-12T17:37:25.713Z,2.40
2023-01-12T17:39:53.865Z,2.63
2023-01-12T17:42:39.572Z,3.00
2023-01-12T17:45:10.436Z,2.80
2023-01-12T17:47:38.813Z,6.67
2023-01-12T17:50:07.894Z,3.47
2023-01-12T17:52:36.158Z,2.70
2023-01-12T17:55:05.214Z,3.23
2023-01-12T17:57:36.079Z,3.53
2023-01-12T18:00:06.090Z,2.40
2023-01-12T18:02:35.933Z,3.90
2023-01-12T18:05:04.334Z,4.00
2023-01-12T18:07:33.191Z,3.63
2023-01-12T18:10:01.406Z,2.97
2023-01-12T18:12:30.303Z,3.73
2023-01-12T18:14:59.115Z,3.00
2023-01-12T18:17:29.698Z,2.70
2023-01-12T18:19:59.961Z,2.70
2023-01-12T18:22:28.311Z,3.13
2023-01-12T18:24:56.766Z,4.43
2023-01-12T18:27:25.421Z,4.73
2023-01-12T18:29:53.752Z,3.90
2023-01-12T18:32:21.996Z,5.03
2023-01-12T18:34:50.399Z,5.33
2023-01-12T18:37:19.916Z,4.70
2023-01-12T18:39:50.414Z,2.80
2023-01-12T18:42:37.434Z,3.13
2023-01-12T18:45:06.143Z,4.17
2023-01-12T18:47:51.794Z,3.53
2023-01-12T18:50:43.227Z,3.60
2023-01-12T18:53:25.657Z,8.10
2023-01-12T18:55:57.373Z,4.30
2023-01-12T18:58:27.770Z,3.27
2023-01-12T19:00:56.557Z,4.07
2023-01-12T19:03:25.588Z,3.67
2023-01-12T19:06:02.256Z,3.20
2023-01-12T19:08:49.395Z,3.50
2023-01-12T19:11:18.645Z,2.87
2023-01-12T19:14:04.132Z,2.93
2023-01-12T19:16:50.079Z,3.87
2023-01-12T19:19:22.817Z,4.00
2023-01-12T19:22:09.664Z,3.80
2023-01-12T19:24:57.305Z,4.07
2023-01-12T19:27:42.956Z,3.27
2023-01-12T19:30:12.805Z,3.73
2023-01-12T19:32:41.561Z,3.93
2023-01-12T19:35:11.893Z,3.83
2023-01-12T19:37:40.399Z,3.80
2023-01-12T19:40:18.108Z,3.27
2023-01-12T19:43:04.009Z,3.10
2023-01-12T19:45:32.404Z,2.90
2023-01-12T19:48:00.841Z,2.80
2023-01-12T19:50:28.968Z,3.47
2023-01-12T19:52:57.150Z,2.93
2023-01-12T19:55:26.755Z,3.30
2023-01-12T19:57:55.045Z,2.70
2023-01-12T20:00:24.779Z,4.50
2023-01-12T20:02:53.452Z,2.83
2023-01-12T20:05:24.738Z,2.53
2023-01-12T20:07:54.255Z,3.07
2023-01-12T20:10:23.922Z,3.60
2023-01-12T20:12:54.832Z,4.03
2023-01-12T20:15:23.010Z,3.13
2023-01-12T20:17:51.635Z,3.73
2023-01-12T20:20:20.238Z,2.80
2023-01-12T20:22:51.110Z,2.67
2023-01-12T20:25:19.917Z,3.37
2023-01-12T20:27:49.372Z,3.40
2023-01-12T20:30:31.944Z,4.73
2023-01-12T20:33:07.353Z,3.20
2023-01-12T20:35:38.316Z,2.67
2023-01-12T20:38:13.342Z,4.60
2023-01-12T20:40:41.612Z,3.63
2023-01-12T20:43:09.711Z,3.23
2023-01-12T20:45:42.084Z,3.10
2023-01-12T20:48:13.218Z,4.57
2023-01-12T20:50:44.473Z,2.77
2023-01-12T20:53:13.229Z,5.67
2023-01-12T20:55:45.897Z,3.93
2023-01-12T20:58:14.651Z,1.80
2023-01-12T21:00:45.086Z,3.70
2023-01-12T21:03:13.821Z,2.37
2023-01-12T21:05:43.353Z,2.73
2023-01-12T21:08:12.335Z,3.57
2023-01-12T21:10:41.919Z,2.67
2023-01-12T21:13:10.105Z,2.73
2023-01-12T21:15:38.208Z,3.30
2023-01-12T21:18:07.894Z,4.53
2023-01-12T21:20:36.477Z,2.87
2023-01-12T21:23:05.808Z,2.80
2023-01-12T21:25:33.988Z,3.30
2023-01-12T21:28:02.140Z,3.37
2023-01-12T21:30:30.428Z,3.73
2023-01-12T21:32:59.386Z,2.13
2023-01-12T21:35:28.946Z,2.67
2023-01-12T21:37:58.036Z,3.30
2023-01-12T21:40:26.389Z,3.07
2023-01-12T21:43:09.767Z,3.93
2023-01-12T21:45:38.738Z,2.00
2023-01-12T21:48:07.844Z,2.90
2023-01-12T21:50:37.911Z,3.07
2023-01-12T21:53:07.988Z,3.23
2023-01-12T21:55:36.693Z,2.57
2023-01-12T21:58:04.987Z,2.30
2023-01-12T22:00:33.204Z,2.10
2023-01-12T22:03:01.354Z,2.70
2023-01-12T22:05:29.642Z,3.23
2023-01-12T22:08:00.776Z,3.27
2023-01-12T22:10:31.908Z,2.93
2023-01-12T22:13:14.466Z,6.10
2023-01-12T22:15:43.180Z,4.10
2023-01-12T22:18:11.738Z,2.83
2023-01-12T22:20:40.159Z,2.80
2023-01-12T22:23:13.057Z,1.93
2023-01-12T22:25:41.350Z,1.97
2023-01-12T22:28:09.488Z,2.10
2023-01-12T22:30:37.615Z,1.97
2023-01-12T22:33:05.907Z,2.67
2023-01-12T22:35:34.862Z,1.87
2023-01-12T22:38:03.057Z,2.10
2023-01-12T22:40:32.747Z,3.13
2023-01-12T22:43:18.741Z,3.93
2023-01-12T22:45:50.739Z,1.60
2023-01-12T22:48:20.760Z,2.10
2023-01-12T22:50:49.953Z,3.27
2023-01-12T22:53:18.296Z,3.90
2023-01-12T22:55:48.075Z,1.90
2023-01-12T22:58:16.293Z,2.47
2023-01-12T23:00:45.702Z,2.70
2023-01-12T23:03:14.873Z,1.30
2023-01-12T23:05:47.838Z,2.43
2023-01-12T23:08:17.586Z,1.77
2023-01-12T23:10:47.546Z,2.27
2023-01-12T23:13:17.861Z,1.90
2023-01-12T23:15:53.392Z,1.60
2023-01-12T23:18:25.276Z,1.70
2023-01-12T23:20:54.381Z,1.40
2023-01-12T23:23:22.562Z,1.50
2023-01-12T23:25:52.064Z,3.53
2023-01-12T23:28:20.243Z,4.20
2023-01-12T23:30:48.406Z,2.63
2023-01-12T23:33:16.516Z,1.63
2023-01-12T23:35:44.652Z,1.90
2023-01-12T23:38:16.436Z,1.67
2023-01-12T23:40:44.596Z,1.30
2023-01-12T23:43:14.103Z,1.60
2023-01-12T23:45:42.273Z,1.83
2023-01-12T23:48:10.423Z,2.10
2023-01-12T23:50:38.476Z,1.40
2023-01-12T23:53:06.549Z,1.80
2023-01-12T23:55:34.640Z,1.60
2023-01-12T23:58:02.715Z,2.30
